sensor_id;sensor_type;location;lat;lon;timestamp;P1;durP1;ratioP1;P2;durP2;ratioP2
62654;SDS011;48717;55.556;37.816;2023-02-28T00:00:44;13.38;;;6.20;;
62654;SDS011;48717;55.556;37.816;2023-02-28T00:03:11;15.38;;;7.43;;
62654;SDS011;48717;55.556;37.816;2023-02-28T00:05:38;16.30;;;7.70;;
62654;SDS011;48717;55.556;37.816;2023-02-28T00:08:06;12.40;;;6.72;;
62654;SDS011;48717;55.556;37.816;2023-02-28T00:10:33;20.63;;;9.18;;
62654;SDS011;48717;55.556;37.816;2023-02-28T00:13:02;14.82;;;6.35;;
62654;SDS011;48717;55.556;37.816;2023-02-28T00:15:30;18.42;;;9.15;;
62654;SDS011;48717;55.556;37.816;2023-02-28T00:17:58;21.25;;;5.45;;
62654;SDS011;48717;55.556;37.816;2023-02-28T00:20:25;14.35;;;5.63;;
62654;SDS011;48717;55.556;37.816;2023-02-28T00:22:53;15.38;;;5.85;;
62654;SDS011;48717;55.556;37.816;2023-02-28T00:25:22;11.55;;;5.25;;
62654;SDS011;48717;55.556;37.816;2023-02-28T00:27:51;7.65;;;3.17;;
62654;SDS011;48717;55.556;37.816;2023-02-28T00:30:19;13.52;;;4.15;;
62654;SDS011;48717;55.556;37.816;2023-02-28T00:32:48;15.20;;;6.30;;
62654;SDS011;48717;55.556;37.816;2023-02-28T00:35:16;9.73;;;4.38;;
62654;SDS011;48717;55.556;37.816;2023-02-28T00:37:43;4.07;;;2.17;;
62654;SDS011;48717;55.556;37.816;2023-02-28T00:40:11;7.57;;;3.33;;
62654;SDS011;48717;55.556;37.816;2023-02-28T00:42:39;8.68;;;3.33;;
62654;SDS011;48717;55.556;37.816;2023-02-28T00:45:07;14.20;;;6.18;;
62654;SDS011;48717;55.556;37.816;2023-02-28T00:47:37;9.82;;;4.45;;
62654;SDS011;48717;55.556;37.816;2023-02-28T00:50:04;12.07;;;5.30;;
62654;SDS011;48717;55.556;37.816;2023-02-28T00:52:33;13.93;;;5.75;;
62654;SDS011;48717;55.556;37.816;2023-02-28T00:55:00;13.38;;;4.13;;
62654;SDS011;48717;55.556;37.816;2023-02-28T00:57:28;17.23;;;7.13;;
62654;SDS011;48717;55.556;37.816;2023-02-28T00:59:55;15.90;;;7.18;;
62654;SDS011;48717;55.556;37.816;2023-02-28T01:02:22;12.77;;;5.80;;
62654;SDS011;48717;55.556;37.816;2023-02-28T01:04:52;8.40;;;3.72;;
62654;SDS011;48717;55.556;37.816;2023-02-28T01:07:19;10.35;;;4.82;;
62654;SDS011;48717;55.556;37.816;2023-02-28T01:09:46;9.20;;;4.78;;
62654;SDS011;48717;55.556;37.816;2023-02-28T01:12:13;9.15;;;4.03;;
62654;SDS011;48717;55.556;37.816;2023-02-28T01:14:40;6.93;;;3.88;;
62654;SDS011;48717;55.556;37.816;2023-02-28T01:17:07;7.57;;;3.63;;
62654;SDS011;48717;55.556;37.816;2023-02-28T01:19:35;4.15;;;2.80;;
62654;SDS011;48717;55.556;37.816;2023-02-28T01:22:03;5.75;;;2.67;;
62654;SDS011;48717;55.556;37.816;2023-02-28T01:24:31;7.88;;;4.03;;
62654;SDS011;48717;55.556;37.816;2023-02-28T01:27:00;9.73;;;4.37;;
62654;SDS011;48717;55.556;37.816;2023-02-28T01:29:27;12.43;;;6.07;;
62654;SDS011;48717;55.556;37.816;2023-02-28T01:31:54;8.07;;;3.90;;
62654;SDS011;48717;55.556;37.816;2023-02-28T01:34:21;6.78;;;2.78;;
62654;SDS011;48717;55.556;37.816;2023-02-28T01:36:50;12.27;;;6.50;;
62654;SDS011;48717;55.556;37.816;2023-02-28T01:39:18;8.25;;;3.97;;
62654;SDS011;48717;55.556;37.816;2023-02-28T01:41:45;9.25;;;4.63;;
62654;SDS011;48717;55.556;37.816;2023-02-28T01:47:18;14.25;;;5.85;;
62654;SDS011;48717;55.556;37.816;2023-02-28T01:49:45;9.90;;;5.65;;
62654;SDS011;48717;55.556;37.816;2023-02-28T01:52:12;8.18;;;4.07;;
62654;SDS011;48717;55.556;37.816;2023-02-28T01:54:46;9.27;;;4.57;;
62654;SDS011;48717;55.556;37.816;2023-02-28T01:57:18;13.05;;;5.72;;
62654;SDS011;48717;55.556;37.816;2023-02-28T01:59:50;9.60;;;4.55;;
62654;SDS011;48717;55.556;37.816;2023-02-28T02:02:21;16.92;;;7.25;;
62654;SDS011;48717;55.556;37.816;2023-02-28T02:04:54;14.47;;;6.03;;
62654;SDS011;48717;55.556;37.816;2023-02-28T02:07:25;11.50;;;4.15;;
62654;SDS011;48717;55.556;37.816;2023-02-28T02:09:59;11.70;;;4.45;;
62654;SDS011;48717;55.556;37.816;2023-02-28T02:34:45;6.68;;;3.10;;
62654;SDS011;48717;55.556;37.816;2023-02-28T02:45:10;13.25;;;5.88;;
62654;SDS011;48717;55.556;37.816;2023-02-28T02:47:41;13.35;;;6.10;;
62654;SDS011;48717;55.556;37.816;2023-02-28T02:50:14;13.70;;;7.03;;
62654;SDS011;48717;55.556;37.816;2023-02-28T02:52:57;13.02;;;6.32;;
62654;SDS011;48717;55.556;37.816;2023-02-28T02:55:29;6.03;;;3.20;;
62654;SDS011;48717;55.556;37.816;2023-02-28T02:58:02;11.32;;;5.25;;
62654;SDS011;48717;55.556;37.816;2023-02-28T03:00:34;6.40;;;2.75;;
62654;SDS011;48717;55.556;37.816;2023-02-28T03:03:06;8.07;;;4.47;;
62654;SDS011;48717;55.556;37.816;2023-02-28T03:05:49;10.27;;;5.55;;
62654;SDS011;48717;55.556;37.816;2023-02-28T03:08:20;8.75;;;4.50;;
62654;SDS011;48717;55.556;37.816;2023-02-28T03:10:51;10.10;;;5.03;;
62654;SDS011;48717;55.556;37.816;2023-02-28T03:27:42;11.00;;;6.30;;
62654;SDS011;48717;55.556;37.816;2023-02-28T03:30:26;9.00;;;4.72;;
62654;SDS011;48717;55.556;37.816;2023-02-28T03:35:36;10.48;;;5.05;;
62654;SDS011;48717;55.556;37.816;2023-02-28T03:38:27;7.07;;;3.33;;
62654;SDS011;48717;55.556;37.816;2023-02-28T03:41:01;4.90;;;2.72;;
62654;SDS011;48717;55.556;37.816;2023-02-28T03:43:35;7.15;;;3.10;;
62654;SDS011;48717;55.556;37.816;2023-02-28T03:46:08;7.68;;;3.45;;
62654;SDS011;48717;55.556;37.816;2023-02-28T03:48:43;7.13;;;3.53;;
62654;SDS011;48717;55.556;37.816;2023-02-28T03:51:16;7.88;;;3.45;;
62654;SDS011;48717;55.556;37.816;2023-02-28T03:53:50;8.27;;;4.38;;
62654;SDS011;48717;55.556;37.816;2023-02-28T03:56:27;7.53;;;3.55;;
62654;SDS011;48717;55.556;37.816;2023-02-28T04:01:51;9.48;;;4.47;;
62654;SDS011;48717;55.556;37.816;2023-02-28T04:04:19;6.85;;;4.28;;
62654;SDS011;48717;55.556;37.816;2023-02-28T04:06:46;8.60;;;5.13;;
62654;SDS011;48717;55.556;37.816;2023-02-28T04:09:17;9.43;;;3.92;;
62654;SDS011;48717;55.556;37.816;2023-02-28T04:11:51;11.10;;;5.93;;
62654;SDS011;48717;55.556;37.816;2023-02-28T04:14:19;6.97;;;3.67;;
62654;SDS011;48717;55.556;37.816;2023-02-28T04:16:46;7.18;;;3.67;;
62654;SDS011;48717;55.556;37.816;2023-02-28T04:19:13;8.43;;;4.35;;
62654;SDS011;48717;55.556;37.816;2023-02-28T04:21:42;6.28;;;2.95;;
62654;SDS011;48717;55.556;37.816;2023-02-28T04:24:12;9.98;;;4.05;;
62654;SDS011;48717;55.556;37.816;2023-02-28T04:26:44;8.00;;;4.60;;
62654;SDS011;48717;55.556;37.816;2023-02-28T04:31:41;7.10;;;3.88;;
62654;SDS011;48717;55.556;37.816;2023-02-28T04:34:08;11.07;;;4.13;;
62654;SDS011;48717;55.556;37.816;2023-02-28T04:36:35;6.78;;;3.67;;
62654;SDS011;48717;55.556;37.816;2023-02-28T04:39:02;5.63;;;2.85;;
62654;SDS011;48717;55.556;37.816;2023-02-28T04:41:30;9.63;;;4.85;;
62654;SDS011;48717;55.556;37.816;2023-02-28T04:43:58;11.23;;;4.90;;
62654;SDS011;48717;55.556;37.816;2023-02-28T04:46:25;8.48;;;4.72;;
62654;SDS011;48717;55.556;37.816;2023-02-28T04:48:52;10.88;;;4.40;;
62654;SDS011;48717;55.556;37.816;2023-02-28T04:51:20;4.20;;;2.05;;
62654;SDS011;48717;55.556;37.816;2023-02-28T04:53:48;13.05;;;5.07;;
62654;SDS011;48717;55.556;37.816;2023-02-28T04:56:16;10.07;;;4.30;;
62654;SDS011;48717;55.556;37.816;2023-02-28T04:58:44;4.72;;;2.13;;
62654;SDS011;48717;55.556;37.816;2023-02-28T05:03:52;8.45;;;2.88;;
62654;SDS011;48717;55.556;37.816;2023-02-28T05:06:22;5.93;;;3.00;;
62654;SDS011;48717;55.556;37.816;2023-02-28T05:08:50;8.02;;;3.85;;
62654;SDS011;48717;55.556;37.816;2023-02-28T05:13:47;6.90;;;3.80;;
62654;SDS011;48717;55.556;37.816;2023-02-28T05:16:15;7.45;;;4.40;;
62654;SDS011;48717;55.556;37.816;2023-02-28T05:18:43;7.07;;;3.85;;
62654;SDS011;48717;55.556;37.816;2023-02-28T05:23:57;11.40;;;6.70;;
62654;SDS011;48717;55.556;37.816;2023-02-28T05:26:26;3.58;;;2.10;;
62654;SDS011;48717;55.556;37.816;2023-02-28T05:28:54;12.43;;;4.40;;
62654;SDS011;48717;55.556;37.816;2023-02-28T05:31:22;6.10;;;3.40;;
62654;SDS011;48717;55.556;37.816;2023-02-28T05:33:49;9.13;;;3.58;;
62654;SDS011;48717;55.556;37.816;2023-02-28T05:36:18;10.55;;;4.93;;
62654;SDS011;48717;55.556;37.816;2023-02-28T05:38:46;10.85;;;4.07;;
62654;SDS011;48717;55.556;37.816;2023-02-28T05:41:14;9.53;;;5.37;;
62654;SDS011;48717;55.556;37.816;2023-02-28T05:43:41;10.48;;;5.18;;
62654;SDS011;48717;55.556;37.816;2023-02-28T05:46:10;6.18;;;2.17;;
62654;SDS011;48717;55.556;37.816;2023-02-28T05:48:38;10.90;;;4.68;;
62654;SDS011;48717;55.556;37.816;2023-02-28T05:51:07;7.75;;;3.85;;
62654;SDS011;48717;55.556;37.816;2023-02-28T05:53:37;9.93;;;5.25;;
62654;SDS011;48717;55.556;37.816;2023-02-28T05:56:04;7.13;;;4.05;;
62654;SDS011;48717;55.556;37.816;2023-02-28T05:58:32;8.85;;;3.42;;
62654;SDS011;48717;55.556;37.816;2023-02-28T06:01:19;5.85;;;3.17;;
62654;SDS011;48717;55.556;37.816;2023-02-28T06:04:11;5.70;;;3.15;;
62654;SDS011;48717;55.556;37.816;2023-02-28T06:06:56;9.63;;;4.38;;
62654;SDS011;48717;55.556;37.816;2023-02-28T06:09:24;8.52;;;3.97;;
62654;SDS011;48717;55.556;37.816;2023-02-28T06:11:51;6.35;;;3.78;;
62654;SDS011;48717;55.556;37.816;2023-02-28T06:14:19;5.20;;;2.70;;
62654;SDS011;48717;55.556;37.816;2023-02-28T06:16:47;9.32;;;3.70;;
62654;SDS011;48717;55.556;37.816;2023-02-28T06:19:14;9.68;;;3.40;;
62654;SDS011;48717;55.556;37.816;2023-02-28T06:21:42;7.40;;;3.40;;
62654;SDS011;48717;55.556;37.816;2023-02-28T06:24:09;7.03;;;3.25;;
62654;SDS011;48717;55.556;37.816;2023-02-28T06:26:36;7.13;;;3.40;;
62654;SDS011;48717;55.556;37.816;2023-02-28T06:29:03;6.00;;;3.08;;
62654;SDS011;48717;55.556;37.816;2023-02-28T06:31:31;10.07;;;3.20;;
62654;SDS011;48717;55.556;37.816;2023-02-28T06:33:59;7.78;;;4.10;;
62654;SDS011;48717;55.556;37.816;2023-02-28T06:36:30;12.07;;;5.72;;
62654;SDS011;48717;55.556;37.816;2023-02-28T06:38:57;4.93;;;2.85;;
62654;SDS011;48717;55.556;37.816;2023-02-28T06:41:25;4.22;;;2.42;;
62654;SDS011;48717;55.556;37.816;2023-02-28T06:43:58;8.98;;;3.08;;
62654;SDS011;48717;55.556;37.816;2023-02-28T06:46:34;6.13;;;2.33;;
62654;SDS011;48717;55.556;37.816;2023-02-28T06:49:02;4.47;;;2.42;;
62654;SDS011;48717;55.556;37.816;2023-02-28T06:51:32;7.68;;;3.58;;
62654;SDS011;48717;55.556;37.816;2023-02-28T06:54:07;5.35;;;2.85;;
62654;SDS011;48717;55.556;37.816;2023-02-28T06:56:37;5.45;;;2.45;;
62654;SDS011;48717;55.556;37.816;2023-02-28T06:59:04;7.78;;;3.78;;
62654;SDS011;48717;55.556;37.816;2023-02-28T07:01:32;3.92;;;2.08;;
62654;SDS011;48717;55.556;37.816;2023-02-28T07:03:59;5.78;;;2.72;;
62654;SDS011;48717;55.556;37.816;2023-02-28T07:06:27;5.47;;;2.83;;
62654;SDS011;48717;55.556;37.816;2023-02-28T07:08:59;5.43;;;3.15;;
62654;SDS011;48717;55.556;37.816;2023-02-28T07:11:33;10.00;;;3.00;;
62654;SDS011;48717;55.556;37.816;2023-02-28T07:14:04;8.27;;;4.03;;
62654;SDS011;48717;55.556;37.816;2023-02-28T07:16:31;15.25;;;4.38;;
62654;SDS011;48717;55.556;37.816;2023-02-28T07:18:58;13.00;;;4.30;;
62654;SDS011;48717;55.556;37.816;2023-02-28T07:21:25;11.35;;;4.72;;
62654;SDS011;48717;55.556;37.816;2023-02-28T07:23:52;10.35;;;3.55;;
62654;SDS011;48717;55.556;37.816;2023-02-28T07:26:20;4.82;;;2.75;;
62654;SDS011;48717;55.556;37.816;2023-02-28T07:28:47;18.77;;;4.28;;
62654;SDS011;48717;55.556;37.816;2023-02-28T07:31:18;5.28;;;2.97;;
62654;SDS011;48717;55.556;37.816;2023-02-28T07:33:46;10.30;;;3.35;;
62654;SDS011;48717;55.556;37.816;2023-02-28T07:36:31;7.30;;;3.15;;
62654;SDS011;48717;55.556;37.816;2023-02-28T07:39:06;4.57;;;2.35;;
62654;SDS011;48717;55.556;37.816;2023-02-28T07:41:44;5.57;;;3.22;;
62654;SDS011;48717;55.556;37.816;2023-02-28T07:44:47;4.05;;;2.85;;
62654;SDS011;48717;55.556;37.816;2023-02-28T07:47:39;5.25;;;3.10;;
62654;SDS011;48717;55.556;37.816;2023-02-28T08:03:42;15.40;;;3.42;;
62654;SDS011;48717;55.556;37.816;2023-02-28T08:06:15;6.50;;;3.00;;
62654;SDS011;48717;55.556;37.816;2023-02-28T08:08:48;4.47;;;2.55;;
62654;SDS011;48717;55.556;37.816;2023-02-28T08:11:22;4.57;;;2.60;;
62654;SDS011;48717;55.556;37.816;2023-02-28T08:13:49;7.18;;;2.65;;
62654;SDS011;48717;55.556;37.816;2023-02-28T08:16:20;5.22;;;3.08;;
62654;SDS011;48717;55.556;37.816;2023-02-28T08:18:55;8.43;;;3.75;;
62654;SDS011;48717;55.556;37.816;2023-02-28T08:21:24;7.03;;;3.47;;
62654;SDS011;48717;55.556;37.816;2023-02-28T08:23:51;5.63;;;2.63;;
62654;SDS011;48717;55.556;37.816;2023-02-28T08:26:19;4.60;;;2.42;;
62654;SDS011;48717;55.556;37.816;2023-02-28T08:28:53;5.57;;;3.00;;
62654;SDS011;48717;55.556;37.816;2023-02-28T08:31:28;6.32;;;3.08;;
62654;SDS011;48717;55.556;37.816;2023-02-28T08:34:05;6.97;;;2.53;;
62654;SDS011;48717;55.556;37.816;2023-02-28T08:36:33;8.35;;;3.28;;
62654;SDS011;48717;55.556;37.816;2023-02-28T08:39:00;6.32;;;3.03;;
62654;SDS011;48717;55.556;37.816;2023-02-28T08:41:27;3.38;;;2.25;;
62654;SDS011;48717;55.556;37.816;2023-02-28T08:43:56;3.70;;;1.98;;
62654;SDS011;48717;55.556;37.816;2023-02-28T08:46:30;9.32;;;3.92;;
62654;SDS011;48717;55.556;37.816;2023-02-28T08:48:58;4.30;;;3.08;;
62654;SDS011;48717;55.556;37.816;2023-02-28T08:51:31;5.85;;;3.15;;
62654;SDS011;48717;55.556;37.816;2023-02-28T08:54:04;5.38;;;3.13;;
62654;SDS011;48717;55.556;37.816;2023-02-28T08:56:32;8.60;;;3.70;;
62654;SDS011;48717;55.556;37.816;2023-02-28T08:59:01;5.63;;;3.13;;
62654;SDS011;48717;55.556;37.816;2023-02-28T09:01:30;8.68;;;3.67;;
62654;SDS011;48717;55.556;37.816;2023-02-28T09:03:59;4.80;;;2.72;;
62654;SDS011;48717;55.556;37.816;2023-02-28T09:20:15;11.82;;;5.05;;
62654;SDS011;48717;55.556;37.816;2023-02-28T09:22:43;8.23;;;3.58;;
62654;SDS011;48717;55.556;37.816;2023-02-28T09:25:10;4.95;;;2.85;;
62654;SDS011;48717;55.556;37.816;2023-02-28T09:27:38;12.65;;;3.72;;
62654;SDS011;48717;55.556;37.816;2023-02-28T09:30:07;6.38;;;3.10;;
62654;SDS011;48717;55.556;37.816;2023-02-28T09:32:35;8.20;;;3.45;;
62654;SDS011;48717;55.556;37.816;2023-02-28T09:35:02;5.85;;;2.63;;
62654;SDS011;48717;55.556;37.816;2023-02-28T09:37:29;5.80;;;3.10;;
62654;SDS011;48717;55.556;37.816;2023-02-28T09:39:57;5.40;;;2.75;;
62654;SDS011;48717;55.556;37.816;2023-02-28T09:42:26;5.53;;;3.00;;
62654;SDS011;48717;55.556;37.816;2023-02-28T09:45:16;6.88;;;3.42;;
62654;SDS011;48717;55.556;37.816;2023-02-28T09:47:52;5.22;;;2.28;;
62654;SDS011;48717;55.556;37.816;2023-02-28T09:51:03;4.93;;;2.75;;
62654;SDS011;48717;55.556;37.816;2023-02-28T09:53:33;5.25;;;2.80;;
62654;SDS011;48717;55.556;37.816;2023-02-28T09:56:07;8.45;;;3.90;;
62654;SDS011;48717;55.556;37.816;2023-02-28T09:58:41;16.05;;;4.45;;
62654;SDS011;48717;55.556;37.816;2023-02-28T10:13:23;13.55;;;5.50;;
62654;SDS011;48717;55.556;37.816;2023-02-28T10:16:12;8.63;;;3.38;;
62654;SDS011;48717;55.556;37.816;2023-02-28T10:22:00;7.82;;;3.72;;
62654;SDS011;48717;55.556;37.816;2023-02-28T10:27:21;13.23;;;4.57;;
62654;SDS011;48717;55.556;37.816;2023-02-28T10:29:58;6.50;;;3.30;;
62654;SDS011;48717;55.556;37.816;2023-02-28T10:32:34;5.68;;;2.90;;
62654;SDS011;48717;55.556;37.816;2023-02-28T10:35:10;4.35;;;2.75;;
62654;SDS011;48717;55.556;37.816;2023-02-28T10:37:58;7.47;;;4.05;;
62654;SDS011;48717;55.556;37.816;2023-02-28T10:40:39;15.88;;;5.30;;
62654;SDS011;48717;55.556;37.816;2023-02-28T10:43:21;5.63;;;3.03;;
62654;SDS011;48717;55.556;37.816;2023-02-28T10:48:33;8.52;;;3.92;;
62654;SDS011;48717;55.556;37.816;2023-02-28T10:51:08;8.05;;;3.92;;
62654;SDS011;48717;55.556;37.816;2023-02-28T10:53:49;8.95;;;4.10;;
62654;SDS011;48717;55.556;37.816;2023-02-28T10:56:31;8.23;;;3.40;;
62654;SDS011;48717;55.556;37.816;2023-02-28T11:02:01;8.75;;;4.18;;
62654;SDS011;48717;55.556;37.816;2023-02-28T11:04:51;5.53;;;2.85;;
62654;SDS011;48717;55.556;37.816;2023-02-28T11:07:30;8.95;;;4.18;;
62654;SDS011;48717;55.556;37.816;2023-02-28T11:10:19;7.25;;;4.32;;
62654;SDS011;48717;55.556;37.816;2023-02-28T11:12:47;7.22;;;3.95;;
62654;SDS011;48717;55.556;37.816;2023-02-28T11:20:47;7.25;;;3.90;;
62654;SDS011;48717;55.556;37.816;2023-02-28T11:23:28;10.05;;;3.90;;
62654;SDS011;48717;55.556;37.816;2023-02-28T11:25:58;10.20;;;5.22;;
62654;SDS011;48717;55.556;37.816;2023-02-28T11:28:32;12.20;;;5.35;;
62654;SDS011;48717;55.556;37.816;2023-02-28T11:34:00;9.55;;;4.72;;
62654;SDS011;48717;55.556;37.816;2023-02-28T11:36:29;9.07;;;4.32;;
62654;SDS011;48717;55.556;37.816;2023-02-28T11:39:20;13.50;;;5.93;;
62654;SDS011;48717;55.556;37.816;2023-02-28T11:45:17;8.50;;;4.15;;
62654;SDS011;48717;55.556;37.816;2023-02-28T11:50:57;12.73;;;6.88;;
62654;SDS011;48717;55.556;37.816;2023-02-28T11:56:37;16.83;;;4.10;;
62654;SDS011;48717;55.556;37.816;2023-02-28T11:59:22;9.52;;;5.18;;
62654;SDS011;48717;55.556;37.816;2023-02-28T12:08:03;8.80;;;4.40;;
62654;SDS011;48717;55.556;37.816;2023-02-28T12:11:19;5.18;;;3.22;;
62654;SDS011;48717;55.556;37.816;2023-02-28T12:16:43;8.18;;;3.92;;
62654;SDS011;48717;55.556;37.816;2023-02-28T12:23:09;6.55;;;4.00;;
62654;SDS011;48717;55.556;37.816;2023-02-28T12:28:54;11.27;;;5.13;;
62654;SDS011;48717;55.556;37.816;2023-02-28T12:31:40;7.78;;;4.15;;
62654;SDS011;48717;55.556;37.816;2023-02-28T12:34:31;10.98;;;4.60;;
62654;SDS011;48717;55.556;37.816;2023-02-28T12:37:07;10.07;;;4.97;;
62654;SDS011;48717;55.556;37.816;2023-02-28T12:39:44;9.98;;;6.05;;
62654;SDS011;48717;55.556;37.816;2023-02-28T12:45:01;12.35;;;5.28;;
62654;SDS011;48717;55.556;37.816;2023-02-28T12:47:50;10.97;;;5.70;;
62654;SDS011;48717;55.556;37.816;2023-02-28T12:50:38;12.70;;;5.55;;
62654;SDS011;48717;55.556;37.816;2023-02-28T12:53:09;12.80;;;8.18;;
62654;SDS011;48717;55.556;37.816;2023-02-28T13:18:52;9.15;;;5.15;;
62654;SDS011;48717;55.556;37.816;2023-02-28T13:21:41;19.23;;;5.93;;
62654;SDS011;48717;55.556;37.816;2023-02-28T13:24:11;11.35;;;5.03;;
62654;SDS011;48717;55.556;37.816;2023-02-28T13:37:35;6.13;;;2.88;;
62654;SDS011;48717;55.556;37.816;2023-02-28T13:47:39;10.85;;;5.75;;
62654;SDS011;48717;55.556;37.816;2023-02-28T13:56:36;13.77;;;5.65;;
62654;SDS011;48717;55.556;37.816;2023-02-28T14:04:34;12.38;;;5.05;;
62654;SDS011;48717;55.556;37.816;2023-02-28T14:07:31;10.07;;;3.40;;
62654;SDS011;48717;55.556;37.816;2023-02-28T14:13:37;15.13;;;5.65;;
62654;SDS011;48717;55.556;37.816;2023-02-28T14:19:13;18.90;;;7.57;;
62654;SDS011;48717;55.556;37.816;2023-02-28T14:24:51;8.70;;;4.85;;
62654;SDS011;48717;55.556;37.816;2023-02-28T14:36:42;7.53;;;4.05;;
62654;SDS011;48717;55.556;37.816;2023-02-28T14:39:17;5.65;;;3.80;;
62654;SDS011;48717;55.556;37.816;2023-02-28T14:41:52;16.90;;;6.33;;
62654;SDS011;48717;55.556;37.816;2023-02-28T14:44:21;11.60;;;5.97;;
62654;SDS011;48717;55.556;37.816;2023-02-28T14:46:59;10.27;;;6.00;;
62654;SDS011;48717;55.556;37.816;2023-02-28T14:49:37;12.02;;;6.47;;
62654;SDS011;48717;55.556;37.816;2023-02-28T14:54:54;7.85;;;3.78;;
62654;SDS011;48717;55.556;37.816;2023-02-28T14:57:39;9.32;;;5.63;;
62654;SDS011;48717;55.556;37.816;2023-02-28T15:00:27;19.60;;;8.77;;
62654;SDS011;48717;55.556;37.816;2023-02-28T15:05:56;20.27;;;7.53;;
62654;SDS011;48717;55.556;37.816;2023-02-28T15:08:29;10.25;;;4.70;;
62654;SDS011;48717;55.556;37.816;2023-02-28T15:11:02;9.55;;;5.35;;
62654;SDS011;48717;55.556;37.816;2023-02-28T15:13:40;16.98;;;8.65;;
62654;SDS011;48717;55.556;37.816;2023-02-28T15:16:09;13.25;;;6.80;;
62654;SDS011;48717;55.556;37.816;2023-02-28T15:21:30;10.05;;;5.32;;
62654;SDS011;48717;55.556;37.816;2023-02-28T15:26:31;14.63;;;7.03;;
62654;SDS011;48717;55.556;37.816;2023-02-28T15:29:04;9.93;;;5.63;;
62654;SDS011;48717;55.556;37.816;2023-02-28T15:31:58;7.57;;;5.07;;
62654;SDS011;48717;55.556;37.816;2023-02-28T15:34:35;5.80;;;4.15;;
62654;SDS011;48717;55.556;37.816;2023-02-28T15:40:03;6.75;;;4.40;;
62654;SDS011;48717;55.556;37.816;2023-02-28T15:45:46;12.95;;;6.47;;
62654;SDS011;48717;55.556;37.816;2023-02-28T15:53:56;14.77;;;6.95;;
62654;SDS011;48717;55.556;37.816;2023-02-28T15:56:33;9.68;;;4.40;;
62654;SDS011;48717;55.556;37.816;2023-02-28T15:59:26;7.72;;;4.07;;
62654;SDS011;48717;55.556;37.816;2023-02-28T16:06:07;11.30;;;6.38;;
62654;SDS011;48717;55.556;37.816;2023-02-28T16:08:06;10.90;;;6.63;;
62654;SDS011;48717;55.556;37.816;2023-02-28T16:10:44;13.73;;;7.10;;
62654;SDS011;48717;55.556;37.816;2023-02-28T16:13:11;20.83;;;5.63;;
62654;SDS011;48717;55.556;37.816;2023-02-28T16:18:11;12.35;;;6.93;;
62654;SDS011;48717;55.556;37.816;2023-02-28T16:20:39;12.75;;;6.78;;
62654;SDS011;48717;55.556;37.816;2023-02-28T16:23:07;11.73;;;6.57;;
62654;SDS011;48717;55.556;37.816;2023-02-28T16:25:42;8.90;;;5.03;;
62654;SDS011;48717;55.556;37.816;2023-02-28T16:28:35;5.90;;;3.60;;
62654;SDS011;48717;55.556;37.816;2023-02-28T16:31:02;12.73;;;6.18;;
62654;SDS011;48717;55.556;37.816;2023-02-28T16:33:38;6.97;;;3.90;;
62654;SDS011;48717;55.556;37.816;2023-02-28T16:36:12;8.52;;;5.20;;
62654;SDS011;48717;55.556;37.816;2023-02-28T16:39:10;6.25;;;4.10;;
62654;SDS011;48717;55.556;37.816;2023-02-28T16:41:46;6.30;;;3.72;;
62654;SDS011;48717;55.556;37.816;2023-02-28T16:47:08;9.45;;;5.45;;
62654;SDS011;48717;55.556;37.816;2023-02-28T16:49:38;8.43;;;5.43;;
62654;SDS011;48717;55.556;37.816;2023-02-28T16:52:10;8.98;;;5.00;;
62654;SDS011;48717;55.556;37.816;2023-02-28T16:54:47;7.72;;;4.75;;
62654;SDS011;48717;55.556;37.816;2023-02-28T16:59:52;8.60;;;4.30;;
62654;SDS011;48717;55.556;37.816;2023-02-28T17:02:20;7.80;;;4.53;;
62654;SDS011;48717;55.556;37.816;2023-02-28T17:04:51;7.10;;;4.25;;
62654;SDS011;48717;55.556;37.816;2023-02-28T17:07:19;7.53;;;4.38;;
62654;SDS011;48717;55.556;37.816;2023-02-28T17:09:47;9.45;;;4.70;;
62654;SDS011;48717;55.556;37.816;2023-02-28T17:12:19;9.80;;;4.95;;
62654;SDS011;48717;55.556;37.816;2023-02-28T17:14:56;4.50;;;2.53;;
62654;SDS011;48717;55.556;37.816;2023-02-28T17:17:36;8.30;;;3.35;;
62654;SDS011;48717;55.556;37.816;2023-02-28T17:20:20;10.57;;;5.18;;
62654;SDS011;48717;55.556;37.816;2023-02-28T17:22:54;9.27;;;4.32;;
62654;SDS011;48717;55.556;37.816;2023-02-28T17:25:28;4.93;;;3.10;;
62654;SDS011;48717;55.556;37.816;2023-02-28T17:27:59;8.02;;;4.10;;
62654;SDS011;48717;55.556;37.816;2023-02-28T17:30:31;8.38;;;4.20;;
62654;SDS011;48717;55.556;37.816;2023-02-28T17:33:02;5.00;;;3.03;;
62654;SDS011;48717;55.556;37.816;2023-02-28T17:35:31;7.20;;;4.53;;
62654;SDS011;48717;55.556;37.816;2023-02-28T17:38:07;6.88;;;4.20;;
62654;SDS011;48717;55.556;37.816;2023-02-28T17:40:46;6.30;;;4.50;;
62654;SDS011;48717;55.556;37.816;2023-02-28T17:43:14;7.22;;;4.03;;
62654;SDS011;48717;55.556;37.816;2023-02-28T17:45:48;8.80;;;4.38;;
62654;SDS011;48717;55.556;37.816;2023-02-28T17:48:16;7.15;;;4.05;;
62654;SDS011;48717;55.556;37.816;2023-02-28T17:50:44;6.45;;;3.70;;
62654;SDS011;48717;55.556;37.816;2023-02-28T17:53:21;4.93;;;3.20;;
62654;SDS011;48717;55.556;37.816;2023-02-28T17:55:51;4.35;;;2.70;;
62654;SDS011;48717;55.556;37.816;2023-02-28T17:58:18;5.40;;;2.75;;
62654;SDS011;48717;55.556;37.816;2023-02-28T18:00:47;3.80;;;2.38;;
62654;SDS011;48717;55.556;37.816;2023-02-28T18:03:20;3.60;;;1.92;;
62654;SDS011;48717;55.556;37.816;2023-02-28T18:05:48;4.95;;;1.83;;
62654;SDS011;48717;55.556;37.816;2023-02-28T18:08:16;4.30;;;2.15;;
62654;SDS011;48717;55.556;37.816;2023-02-28T18:10:43;2.85;;;2.00;;
62654;SDS011;48717;55.556;37.816;2023-02-28T18:13:11;2.13;;;1.58;;
62654;SDS011;48717;55.556;37.816;2023-02-28T18:15:39;1.75;;;1.40;;
62654;SDS011;48717;55.556;37.816;2023-02-28T18:18:06;3.00;;;1.50;;
62654;SDS011;48717;55.556;37.816;2023-02-28T18:20:33;4.22;;;1.67;;
62654;SDS011;48717;55.556;37.816;2023-02-28T18:23:01;7.55;;;2.28;;
62654;SDS011;48717;55.556;37.816;2023-02-28T18:25:28;3.15;;;1.52;;
62654;SDS011;48717;55.556;37.816;2023-02-28T18:27:55;3.55;;;2.30;;
62654;SDS011;48717;55.556;37.816;2023-02-28T18:30:26;6.75;;;1.77;;
62654;SDS011;48717;55.556;37.816;2023-02-28T18:32:59;5.47;;;1.60;;
62654;SDS011;48717;55.556;37.816;2023-02-28T18:35:28;3.60;;;2.00;;
62654;SDS011;48717;55.556;37.816;2023-02-28T18:38:07;3.28;;;1.63;;
62654;SDS011;48717;55.556;37.816;2023-02-28T18:40:37;3.45;;;1.80;;
62654;SDS011;48717;55.556;37.816;2023-02-28T18:43:04;5.70;;;1.70;;
62654;SDS011;48717;55.556;37.816;2023-02-28T18:45:35;6.38;;;1.58;;
62654;SDS011;48717;55.556;37.816;2023-02-28T18:48:04;1.63;;;1.05;;
62654;SDS011;48717;55.556;37.816;2023-02-28T18:50:31;2.95;;;1.30;;
62654;SDS011;48717;55.556;37.816;2023-02-28T18:52:59;4.15;;;1.95;;
62654;SDS011;48717;55.556;37.816;2023-02-28T18:55:30;7.50;;;1.20;;
62654;SDS011;48717;55.556;37.816;2023-02-28T18:57:58;2.03;;;1.10;;
62654;SDS011;48717;55.556;37.816;2023-02-28T19:00:25;3.35;;;0.80;;
62654;SDS011;48717;55.556;37.816;2023-02-28T19:02:53;2.50;;;0.70;;
62654;SDS011;48717;55.556;37.816;2023-02-28T19:05:20;1.20;;;0.90;;
62654;SDS011;48717;55.556;37.816;2023-02-28T19:07:47;4.20;;;0.88;;
62654;SDS011;48717;55.556;37.816;2023-02-28T19:10:15;2.10;;;1.08;;
62654;SDS011;48717;55.556;37.816;2023-02-28T19:12:42;3.33;;;1.10;;
62654;SDS011;48717;55.556;37.816;2023-02-28T19:15:09;1.60;;;0.80;;
62654;SDS011;48717;55.556;37.816;2023-02-28T19:17:37;2.40;;;0.90;;